sensor_id;sensor_type;location;lat;lon;timestamp;P1;durP1;ratioP1;P2;durP2;ratioP2
26600;SDS011;14241;49.260;10.496;2022-09-12T00:01:34;13.27;;;10.80;;
26600;SDS011;14241;49.260;10.496;2022-09-12T00:04:00;11.87;;;10.67;;
26600;SDS011;14241;49.260;10.496;2022-09-12T00:06:30;11.75;;;10.55;;
26600;SDS011;14241;49.260;10.496;2022-09-12T00:08:56;10.68;;;9.57;;
26600;SDS011;14241;49.260;10.496;2022-09-12T00:11:22;12.82;;;10.20;;
26600;SDS011;14241;49.260;10.496;2022-09-12T00:13:48;10.40;;;9.40;;
26600;SDS011;14241;49.260;10.496;2022-09-12T00:16:14;9.88;;;8.98;;
26600;SDS011;14241;49.260;10.496;2022-09-12T00:18:40;11.10;;;9.45;;
26600;SDS011;14241;49.260;10.496;2022-09-12T00:21:05;9.98;;;8.98;;
26600;SDS011;14241;49.260;10.496;2022-09-12T00:23:31;10.07;;;9.13;;
26600;SDS011;14241;49.260;10.496;2022-09-12T00:25:56;10.35;;;9.20;;
26600;SDS011;14241;49.260;10.496;2022-09-12T00:28:22;9.77;;;8.73;;
26600;SDS011;14241;49.260;10.496;2022-09-12T00:30:47;10.63;;;9.32;;
26600;SDS011;14241;49.260;10.496;2022-09-12T00:33:13;8.05;;;7.25;;
26600;SDS011;14241;49.260;10.496;2022-09-12T00:35:40;9.10;;;8.23;;
26600;SDS011;14241;49.260;10.496;2022-09-12T00:38:06;9.27;;;8.38;;
26600;SDS011;14241;49.260;10.496;2022-09-12T00:40:31;10.13;;;8.43;;
26600;SDS011;14241;49.260;10.496;2022-09-12T00:42:56;9.80;;;8.82;;
26600;SDS011;14241;49.260;10.496;2022-09-12T00:45:22;10.07;;;9.15;;
26600;SDS011;14241;49.260;10.496;2022-09-12T00:47:50;8.52;;;7.63;;
26600;SDS011;14241;49.260;10.496;2022-09-12T00:50:16;8.77;;;7.93;;
26600;SDS011;14241;49.260;10.496;2022-09-12T00:55:14;10.10;;;9.13;;
26600;SDS011;14241;49.260;10.496;2022-09-12T00:58:23;9.50;;;8.60;;
26600;SDS011;14241;49.260;10.496;2022-09-12T01:00:28;9.70;;;8.68;;
26600;SDS011;14241;49.260;10.496;2022-09-12T01:03:04;10.30;;;9.30;;
26600;SDS011;14241;49.260;10.496;2022-09-12T01:05:30;10.82;;;8.80;;
26600;SDS011;14241;49.260;10.496;2022-09-12T01:07:57;9.15;;;8.25;;
26600;SDS011;14241;49.260;10.496;2022-09-12T01:10:25;9.13;;;8.23;;
26600;SDS011;14241;49.260;10.496;2022-09-12T01:12:50;11.00;;;9.18;;
26600;SDS011;14241;49.260;10.496;2022-09-12T01:15:15;9.95;;;9.05;;
26600;SDS011;14241;49.260;10.496;2022-09-12T01:17:53;10.35;;;9.32;;
26600;SDS011;14241;49.260;10.496;2022-09-12T01:25:30;9.80;;;8.18;;
26600;SDS011;14241;49.260;10.496;2022-09-12T01:38:23;9.25;;;7.80;;
26600;SDS011;14241;49.260;10.496;2022-09-12T01:43:17;9.80;;;7.93;;
26600;SDS011;14241;49.260;10.496;2022-09-12T01:45:45;9.70;;;8.30;;
26600;SDS011;14241;49.260;10.496;2022-09-12T01:48:17;9.10;;;8.23;;
26600;SDS011;14241;49.260;10.496;2022-09-12T01:50:51;9.88;;;8.98;;
26600;SDS011;14241;49.260;10.496;2022-09-12T01:53:22;12.95;;;11.65;;
26600;SDS011;14241;49.260;10.496;2022-09-12T01:55:55;12.65;;;11.30;;
26600;SDS011;14241;49.260;10.496;2022-09-12T01:58:26;17.17;;;12.80;;
26600;SDS011;14241;49.260;10.496;2022-09-12T02:03:32;19.70;;;12.03;;
26600;SDS011;14241;49.260;10.496;2022-09-12T02:06:11;33.22;;;10.68;;
26600;SDS011;14241;49.260;10.496;2022-09-12T02:08:43;42.08;;;9.30;;
26600;SDS011;14241;49.260;10.496;2022-09-12T02:11:10;36.80;;;7.90;;
26600;SDS011;14241;49.260;10.496;2022-09-12T02:16:05;25.27;;;8.55;;
26600;SDS011;14241;49.260;10.496;2022-09-12T02:18:31;45.05;;;7.78;;
26600;SDS011;14241;49.260;10.496;2022-09-12T02:20:58;34.10;;;8.98;;
26600;SDS011;14241;49.260;10.496;2022-09-12T02:23:27;29.00;;;7.63;;
26600;SDS011;14241;49.260;10.496;2022-09-12T02:25:54;20.55;;;7.80;;
26600;SDS011;14241;49.260;10.496;2022-09-12T02:28:33;14.27;;;7.90;;
26600;SDS011;14241;49.260;10.496;2022-09-12T02:34:08;9.88;;;7.55;;
26600;SDS011;14241;49.260;10.496;2022-09-12T02:38:58;9.43;;;8.43;;
26600;SDS011;14241;49.260;10.496;2022-09-12T02:41:24;8.50;;;7.70;;
26600;SDS011;14241;49.260;10.496;2022-09-12T02:43:49;8.48;;;7.55;;
26600;SDS011;14241;49.260;10.496;2022-09-12T02:46:26;7.80;;;7.10;;
26600;SDS011;14241;49.260;10.496;2022-09-12T02:48:53;7.22;;;6.53;;
26600;SDS011;14241;49.260;10.496;2022-09-12T02:51:18;6.78;;;6.15;;
26600;SDS011;14241;49.260;10.496;2022-09-12T02:53:44;6.82;;;6.13;;
26600;SDS011;14241;49.260;10.496;2022-09-12T02:56:11;7.93;;;7.13;;
26600;SDS011;14241;49.260;10.496;2022-09-12T02:58:38;7.97;;;7.28;;
26600;SDS011;14241;49.260;10.496;2022-09-12T03:11:36;5.30;;;4.80;;
26600;SDS011;14241;49.260;10.496;2022-09-12T03:22:03;5.28;;;4.35;;
26600;SDS011;14241;49.260;10.496;2022-09-12T03:24:32;4.13;;;3.20;;
26600;SDS011;14241;49.260;10.496;2022-09-12T03:27:15;4.00;;;3.55;;
26600;SDS011;14241;49.260;10.496;2022-09-12T03:29:41;3.65;;;3.35;;
26600;SDS011;14241;49.260;10.496;2022-09-12T03:32:06;3.33;;;3.03;;
26600;SDS011;14241;49.260;10.496;2022-09-12T03:34:31;3.92;;;3.63;;
26600;SDS011;14241;49.260;10.496;2022-09-12T03:36:57;3.83;;;3.53;;
26600;SDS011;14241;49.260;10.496;2022-09-12T03:39:23;3.88;;;3.58;;
26600;SDS011;14241;49.260;10.496;2022-09-12T03:41:50;4.30;;;3.97;;
26600;SDS011;14241;49.260;10.496;2022-09-12T03:44:16;6.00;;;5.40;;
26600;SDS011;14241;49.260;10.496;2022-09-12T03:46:41;4.35;;;4.03;;
26600;SDS011;14241;49.260;10.496;2022-09-12T03:49:06;5.72;;;4.72;;
26600;SDS011;14241;49.260;10.496;2022-09-12T03:51:32;4.87;;;4.47;;
26600;SDS011;14241;49.260;10.496;2022-09-12T03:53:57;5.80;;;5.30;;
26600;SDS011;14241;49.260;10.496;2022-09-12T03:56:22;5.40;;;4.90;;
26600;SDS011;14241;49.260;10.496;2022-09-12T03:58:48;5.10;;;4.60;;
26600;SDS011;14241;49.260;10.496;2022-09-12T04:01:15;5.47;;;4.87;;
26600;SDS011;14241;49.260;10.496;2022-09-12T04:03:40;5.50;;;5.00;;
26600;SDS011;14241;49.260;10.496;2022-09-12T04:06:06;5.05;;;4.65;;
26600;SDS011;14241;49.260;10.496;2022-09-12T04:08:33;6.20;;;5.03;;
26600;SDS011;14241;49.260;10.496;2022-09-12T04:11:17;5.28;;;4.78;;
26600;SDS011;14241;49.260;10.496;2022-09-12T04:13:43;7.30;;;6.60;;
26600;SDS011;14241;49.260;10.496;2022-09-12T04:16:09;7.95;;;7.15;;
26600;SDS011;14241;49.260;10.496;2022-09-12T04:18:34;7.65;;;6.95;;
26600;SDS011;14241;49.260;10.496;2022-09-12T04:21:33;7.32;;;6.63;;
26600;SDS011;14241;49.260;10.496;2022-09-12T04:23:51;8.73;;;6.43;;
26600;SDS011;14241;49.260;10.496;2022-09-12T04:26:17;7.88;;;7.03;;
26600;SDS011;14241;49.260;10.496;2022-09-12T04:28:43;10.45;;;7.75;;
26600;SDS011;14241;49.260;10.496;2022-09-12T04:31:10;8.45;;;7.55;;
26600;SDS011;14241;49.260;10.496;2022-09-12T04:33:36;8.00;;;7.20;;
26600;SDS011;14241;49.260;10.496;2022-09-12T04:36:05;7.05;;;6.35;;
26600;SDS011;14241;49.260;10.496;2022-09-12T04:38:31;7.45;;;6.68;;
26600;SDS011;14241;49.260;10.496;2022-09-12T04:40:56;7.03;;;6.32;;
26600;SDS011;14241;49.260;10.496;2022-09-12T04:43:22;7.20;;;6.50;;
26600;SDS011;14241;49.260;10.496;2022-09-12T04:45:47;7.40;;;6.70;;
26600;SDS011;14241;49.260;10.496;2022-09-12T04:48:12;6.80;;;6.17;;
26600;SDS011;14241;49.260;10.496;2022-09-12T04:50:37;8.37;;;7.37;;
26600;SDS011;14241;49.260;10.496;2022-09-12T04:53:02;10.33;;;7.03;;
26600;SDS011;14241;49.260;10.496;2022-09-12T04:55:28;7.95;;;7.15;;
26600;SDS011;14241;49.260;10.496;2022-09-12T04:57:53;7.32;;;6.60;;
26600;SDS011;14241;49.260;10.496;2022-09-12T05:00:18;8.70;;;6.68;;
26600;SDS011;14241;49.260;10.496;2022-09-12T05:02:44;11.35;;;6.95;;
26600;SDS011;14241;49.260;10.496;2022-09-12T05:05:10;6.45;;;5.60;;
26600;SDS011;14241;49.260;10.496;2022-09-12T05:07:36;6.07;;;5.47;;
26600;SDS011;14241;49.260;10.496;2022-09-12T05:10:01;6.93;;;5.50;;
26600;SDS011;14241;49.260;10.496;2022-09-12T05:12:29;7.18;;;5.93;;
26600;SDS011;14241;49.260;10.496;2022-09-12T05:14:55;7.53;;;6.65;;
26600;SDS011;14241;49.260;10.496;2022-09-12T05:17:20;8.50;;;7.50;;
26600;SDS011;14241;49.260;10.496;2022-09-12T05:19:46;10.32;;;7.85;;
26600;SDS011;14241;49.260;10.496;2022-09-12T05:22:12;10.68;;;7.57;;
26600;SDS011;14241;49.260;10.496;2022-09-12T05:24:37;8.63;;;7.65;;
26600;SDS011;14241;49.260;10.496;2022-09-12T05:27:03;7.35;;;6.65;;
26600;SDS011;14241;49.260;10.496;2022-09-12T05:29:29;9.70;;;5.72;;
26600;SDS011;14241;49.260;10.496;2022-09-12T05:31:54;6.05;;;5.55;;
26600;SDS011;14241;49.260;10.496;2022-09-12T05:34:19;6.55;;;5.88;;
26600;SDS011;14241;49.260;10.496;2022-09-12T05:36:45;6.07;;;5.47;;
26600;SDS011;14241;49.260;10.496;2022-09-12T05:39:10;6.95;;;5.93;;
26600;SDS011;14241;49.260;10.496;2022-09-12T05:41:36;8.75;;;6.57;;
26600;SDS011;14241;49.260;10.496;2022-09-12T05:44:03;7.95;;;6.70;;
26600;SDS011;14241;49.260;10.496;2022-09-12T05:46:29;9.63;;;7.95;;
26600;SDS011;14241;49.260;10.496;2022-09-12T05:48:55;10.48;;;8.25;;
26600;SDS011;14241;49.260;10.496;2022-09-12T05:51:26;10.13;;;9.05;;
26600;SDS011;14241;49.260;10.496;2022-09-12T05:53:53;10.95;;;8.95;;
26600;SDS011;14241;49.260;10.496;2022-09-12T05:56:19;11.35;;;9.45;;
26600;SDS011;14241;49.260;10.496;2022-09-12T05:58:46;12.55;;;9.95;;
26600;SDS011;14241;49.260;10.496;2022-09-12T06:01:13;14.70;;;11.75;;
26600;SDS011;14241;49.260;10.496;2022-09-12T06:03:43;19.08;;;15.68;;
26600;SDS011;14241;49.260;10.496;2022-09-12T06:06:09;17.70;;;13.95;;
26600;SDS011;14241;49.260;10.496;2022-09-12T06:08:37;14.63;;;12.07;;
26600;SDS011;14241;49.260;10.496;2022-09-12T06:11:03;13.90;;;12.40;;
26600;SDS011;14241;49.260;10.496;2022-09-12T06:13:30;16.73;;;13.07;;
26600;SDS011;14241;49.260;10.496;2022-09-12T06:16:00;14.70;;;12.32;;
26600;SDS011;14241;49.260;10.496;2022-09-12T06:18:26;13.88;;;12.38;;
26600;SDS011;14241;49.260;10.496;2022-09-12T06:20:52;11.95;;;10.70;;
26600;SDS011;14241;49.260;10.496;2022-09-12T06:23:17;11.30;;;10.20;;
26600;SDS011;14241;49.260;10.496;2022-09-12T06:25:46;11.30;;;10.00;;
26600;SDS011;14241;49.260;10.496;2022-09-12T06:28:13;9.27;;;8.38;;
26600;SDS011;14241;49.260;10.496;2022-09-12T06:30:38;9.32;;;8.23;;
26600;SDS011;14241;49.260;10.496;2022-09-12T06:33:03;9.82;;;8.82;;
26600;SDS011;14241;49.260;10.496;2022-09-12T06:35:29;9.10;;;8.20;;
26600;SDS011;14241;49.260;10.496;2022-09-12T06:37:54;9.93;;;8.50;;
26600;SDS011;14241;49.260;10.496;2022-09-12T06:40:19;9.10;;;8.23;;
26600;SDS011;14241;49.260;10.496;2022-09-12T06:42:44;10.07;;;9.03;;
26600;SDS011;14241;49.260;10.496;2022-09-12T06:45:09;9.80;;;8.90;;
26600;SDS011;14241;49.260;10.496;2022-09-12T06:47:35;9.18;;;8.23;;
26600;SDS011;14241;49.260;10.496;2022-09-12T06:50:01;10.27;;;9.30;;
26600;SDS011;14241;49.260;10.496;2022-09-12T06:52:26;10.07;;;9.02;;
26600;SDS011;14241;49.260;10.496;2022-09-12T06:54:53;11.40;;;10.23;;
26600;SDS011;14241;49.260;10.496;2022-09-12T06:57:18;13.65;;;10.23;;
26600;SDS011;14241;49.260;10.496;2022-09-12T06:59:43;16.85;;;13.27;;
26600;SDS011;14241;49.260;10.496;2022-09-12T07:02:08;13.85;;;11.65;;
26600;SDS011;14241;49.260;10.496;2022-09-12T07:04:34;14.50;;;11.43;;
26600;SDS011;14241;49.260;10.496;2022-09-12T07:07:00;13.80;;;12.30;;
26600;SDS011;14241;49.260;10.496;2022-09-12T07:09:25;15.40;;;13.07;;
26600;SDS011;14241;49.260;10.496;2022-09-12T07:11:51;14.30;;;12.63;;
26600;SDS011;14241;49.260;10.496;2022-09-12T07:14:16;17.73;;;13.68;;
26600;SDS011;14241;49.260;10.496;2022-09-12T07:16:42;17.92;;;14.88;;
26600;SDS011;14241;49.260;10.496;2022-09-12T07:19:07;18.88;;;14.63;;
26600;SDS011;14241;49.260;10.496;2022-09-12T07:21:33;20.58;;;14.85;;
26600;SDS011;14241;49.260;10.496;2022-09-12T07:24:03;14.68;;;13.07;;
26600;SDS011;14241;49.260;10.496;2022-09-12T07:26:28;14.77;;;12.35;;
26600;SDS011;14241;49.260;10.496;2022-09-12T07:28:54;15.65;;;12.88;;
26600;SDS011;14241;49.260;10.496;2022-09-12T07:31:21;17.95;;;13.93;;
26600;SDS011;14241;49.260;10.496;2022-09-12T07:33:46;19.33;;;16.15;;
26600;SDS011;14241;49.260;10.496;2022-09-12T07:36:13;17.92;;;15.50;;
26600;SDS011;14241;49.260;10.496;2022-09-12T07:38:38;22.20;;;17.33;;
26600;SDS011;14241;49.260;10.496;2022-09-12T07:41:13;22.35;;;17.35;;
26600;SDS011;14241;49.260;10.496;2022-09-12T07:43:39;29.52;;;19.08;;
26600;SDS011;14241;49.260;10.496;2022-09-12T07:46:05;24.30;;;19.15;;
26600;SDS011;14241;49.260;10.496;2022-09-12T07:48:32;25.25;;;20.27;;
26600;SDS011;14241;49.260;10.496;2022-09-12T07:50:58;25.83;;;20.10;;
26600;SDS011;14241;49.260;10.496;2022-09-12T07:53:24;29.88;;;21.75;;
26600;SDS011;14241;49.260;10.496;2022-09-12T07:55:54;27.58;;;21.55;;
26600;SDS011;14241;49.260;10.496;2022-09-12T07:58:20;23.20;;;18.83;;
26600;SDS011;14241;49.260;10.496;2022-09-12T08:00:46;24.20;;;19.55;;
26600;SDS011;14241;49.260;10.496;2022-09-12T08:03:11;22.85;;;18.27;;
26600;SDS011;14241;49.260;10.496;2022-09-12T08:05:36;24.27;;;19.02;;
26600;SDS011;14241;49.260;10.496;2022-09-12T08:08:01;23.80;;;18.13;;
26600;SDS011;14241;49.260;10.496;2022-09-12T08:10:27;24.13;;;19.13;;
26600;SDS011;14241;49.260;10.496;2022-09-12T08:12:52;22.00;;;18.13;;
26600;SDS011;14241;49.260;10.496;2022-09-12T08:15:18;20.37;;;16.67;;
26600;SDS011;14241;49.260;10.496;2022-09-12T08:17:44;18.60;;;16.45;;
26600;SDS011;14241;49.260;10.496;2022-09-12T08:20:09;16.88;;;15.07;;
26600;SDS011;14241;49.260;10.496;2022-09-12T08:22:36;17.55;;;15.30;;
26600;SDS011;14241;49.260;10.496;2022-09-12T08:25:01;17.33;;;14.10;;
26600;SDS011;14241;49.260;10.496;2022-09-12T08:27:26;15.13;;;13.52;;
26600;SDS011;14241;49.260;10.496;2022-09-12T08:29:51;14.82;;;13.13;;
26600;SDS011;14241;49.260;10.496;2022-09-12T08:32:17;14.73;;;13.15;;
26600;SDS011;14241;49.260;10.496;2022-09-12T08:34:43;15.40;;;12.73;;
26600;SDS011;14241;49.260;10.496;2022-09-12T08:37:08;13.80;;;12.40;;
26600;SDS011;14241;49.260;10.496;2022-09-12T08:39:33;13.10;;;11.53;;
26600;SDS011;14241;49.260;10.496;2022-09-12T08:49:54;11.53;;;10.33;;
26600;SDS011;14241;49.260;10.496;2022-09-12T08:55:26;11.65;;;9.77;;
26600;SDS011;14241;49.260;10.496;2022-09-12T08:57:55;11.38;;;9.15;;
26600;SDS011;14241;49.260;10.496;2022-09-12T09:00:20;10.80;;;9.30;;
26600;SDS011;14241;49.260;10.496;2022-09-12T09:02:53;9.50;;;8.53;;
26600;SDS011;14241;49.260;10.496;2022-09-12T09:10:47;9.27;;;8.38;;
26600;SDS011;14241;49.260;10.496;2022-09-12T09:13:21;8.55;;;7.40;;
26600;SDS011;14241;49.260;10.496;2022-09-12T09:18:50;9.10;;;6.55;;
26600;SDS011;14241;49.260;10.496;2022-09-12T09:23:49;6.07;;;5.43;;
26600;SDS011;14241;49.260;10.496;2022-09-12T09:26:22;5.55;;;4.30;;
26600;SDS011;14241;49.260;10.496;2022-09-12T09:31:23;4.28;;;3.88;;
26600;SDS011;14241;49.260;10.496;2022-09-12T09:33:49;5.28;;;4.55;;
26600;SDS011;14241;49.260;10.496;2022-09-12T09:36:18;5.57;;;4.97;;
26600;SDS011;14241;49.260;10.496;2022-09-12T09:43:43;5.25;;;3.85;;
26600;SDS011;14241;49.260;10.496;2022-09-12T09:46:09;3.83;;;2.75;;
26600;SDS011;14241;49.260;10.496;2022-09-12T09:48:36;5.72;;;3.55;;
26600;SDS011;14241;49.260;10.496;2022-09-12T09:51:03;4.07;;;3.78;;
26600;SDS011;14241;49.260;10.496;2022-09-12T09:53:49;5.18;;;3.45;;
26600;SDS011;14241;49.260;10.496;2022-09-12T09:58:50;4.65;;;4.22;;
26600;SDS011;14241;49.260;10.496;2022-09-12T10:01:16;4.37;;;3.50;;
26600;SDS011;14241;49.260;10.496;2022-09-12T10:03:49;3.78;;;3.30;;
26600;SDS011;14241;49.260;10.496;2022-09-12T10:08:46;4.40;;;4.00;;
26600;SDS011;14241;49.260;10.496;2022-09-12T10:16:21;3.70;;;3.40;;
26600;SDS011;14241;49.260;10.496;2022-09-12T10:18:47;4.75;;;3.33;;
26600;SDS011;14241;49.260;10.496;2022-09-12T10:23:38;3.70;;;3.30;;
26600;SDS011;14241;49.260;10.496;2022-09-12T10:26:08;5.47;;;3.55;;
26600;SDS011;14241;49.260;10.496;2022-09-12T10:30:59;5.40;;;4.17;;
26600;SDS011;14241;49.260;10.496;2022-09-12T10:33:26;3.50;;;3.17;;
26600;SDS011;14241;49.260;10.496;2022-09-12T10:35:52;4.82;;;3.60;;
26600;SDS011;14241;49.260;10.496;2022-09-12T10:38:27;7.63;;;3.25;;
26600;SDS011;14241;49.260;10.496;2022-09-12T10:40:56;6.95;;;3.60;;
26600;SDS011;14241;49.260;10.496;2022-09-12T10:43:34;5.35;;;4.10;;
26600;SDS011;14241;49.260;10.496;2022-09-12T10:48:40;5.38;;;3.95;;
26600;SDS011;14241;49.260;10.496;2022-09-12T10:51:07;7.78;;;4.10;;
26600;SDS011;14241;49.260;10.496;2022-09-12T10:53:42;4.10;;;3.65;;
26600;SDS011;14241;49.260;10.496;2022-09-12T10:56:13;5.30;;;4.18;;
26600;SDS011;14241;49.260;10.496;2022-09-12T11:01:39;6.03;;;4.00;;
26600;SDS011;14241;49.260;10.496;2022-09-12T11:06:33;3.97;;;3.67;;
26600;SDS011;14241;49.260;10.496;2022-09-12T11:09:03;3.65;;;3.25;;
26600;SDS011;14241;49.260;10.496;2022-09-12T11:16:48;5.00;;;3.75;;
26600;SDS011;14241;49.260;10.496;2022-09-12T11:35:06;5.20;;;3.92;;
26600;SDS011;14241;49.260;10.496;2022-09-12T11:37:43;4.68;;;3.60;;
26600;SDS011;14241;49.260;10.496;2022-09-12T11:42:45;4.55;;;3.53;;
26600;SDS011;14241;49.260;10.496;2022-09-12T11:45:12;3.17;;;2.78;;
26600;SDS011;14241;49.260;10.496;2022-09-12T11:47:39;3.85;;;3.35;;
26600;SDS011;14241;49.260;10.496;2022-09-12T11:50:12;4.85;;;3.20;;
26600;SDS011;14241;49.260;10.496;2022-09-12T11:52:39;3.00;;;2.58;;
26600;SDS011;14241;49.260;10.496;2022-09-12T12:02:24;4.27;;;3.17;;
26600;SDS011;14241;49.260;10.496;2022-09-12T12:05:04;3.80;;;2.92;;
26600;SDS011;14241;49.260;10.496;2022-09-12T12:07:51;3.22;;;2.90;;
26600;SDS011;14241;49.260;10.496;2022-09-12T12:12:49;3.50;;;3.05;;
26600;SDS011;14241;49.260;10.496;2022-09-12T12:15:15;3.67;;;2.70;;
26600;SDS011;14241;49.260;10.496;2022-09-12T12:17:41;2.88;;;2.22;;
26600;SDS011;14241;49.260;10.496;2022-09-12T12:20:14;3.58;;;2.40;;
26600;SDS011;14241;49.260;10.496;2022-09-12T12:22:49;4.25;;;2.85;;
26600;SDS011;14241;49.260;10.496;2022-09-12T12:32:57;3.80;;;3.03;;
26600;SDS011;14241;49.260;10.496;2022-09-12T12:35:35;5.68;;;3.33;;
26600;SDS011;14241;49.260;10.496;2022-09-12T12:38:02;3.55;;;2.70;;
26600;SDS011;14241;49.260;10.496;2022-09-12T12:40:28;3.63;;;3.03;;
26600;SDS011;14241;49.260;10.496;2022-09-12T12:42:58;2.75;;;2.55;;
26600;SDS011;14241;49.260;10.496;2022-09-12T12:52:47;3.92;;;2.67;;
26600;SDS011;14241;49.260;10.496;2022-09-12T12:55:14;2.92;;;2.40;;
26600;SDS011;14241;49.260;10.496;2022-09-12T12:57:44;2.65;;;2.40;;
26600;SDS011;14241;49.260;10.496;2022-09-12T13:05:20;2.65;;;2.13;;
26600;SDS011;14241;49.260;10.496;2022-09-12T13:07:46;3.17;;;2.20;;
26600;SDS011;14241;49.260;10.496;2022-09-12T13:10:21;2.83;;;2.40;;
26600;SDS011;14241;49.260;10.496;2022-09-12T13:12:47;2.92;;;2.17;;
26600;SDS011;14241;49.260;10.496;2022-09-12T13:17:59;3.97;;;3.53;;
26600;SDS011;14241;49.260;10.496;2022-09-12T13:20:27;4.35;;;2.60;;
26600;SDS011;14241;49.260;10.496;2022-09-12T13:22:54;3.20;;;2.55;;
26600;SDS011;14241;49.260;10.496;2022-09-12T13:25:29;2.40;;;2.20;;
26600;SDS011;14241;49.260;10.496;2022-09-12T13:30:27;3.35;;;2.30;;
26600;SDS011;14241;49.260;10.496;2022-09-12T13:32:53;3.55;;;2.58;;
26600;SDS011;14241;49.260;10.496;2022-09-12T13:35:22;2.25;;;2.05;;
26600;SDS011;14241;49.260;10.496;2022-09-12T13:37:54;3.58;;;2.42;;
26600;SDS011;14241;49.260;10.496;2022-09-12T13:43:12;3.38;;;2.20;;
26600;SDS011;14241;49.260;10.496;2022-09-12T13:45:41;2.78;;;2.40;;
26600;SDS011;14241;49.260;10.496;2022-09-12T13:48:15;2.60;;;2.30;;
26600;SDS011;14241;49.260;10.496;2022-09-12T13:50:45;3.65;;;2.50;;
26600;SDS011;14241;49.260;10.496;2022-09-12T13:53:13;2.80;;;2.17;;
26600;SDS011;14241;49.260;10.496;2022-09-12T13:55:40;2.47;;;2.28;;
26600;SDS011;14241;49.260;10.496;2022-09-12T13:58:18;2.85;;;1.80;;
26600;SDS011;14241;49.260;10.496;2022-09-12T14:00:43;2.05;;;1.60;;
26600;SDS011;14241;49.260;10.496;2022-09-12T14:03:29;6.90;;;2.42;;
26600;SDS011;14241;49.260;10.496;2022-09-12T14:06:13;1.70;;;1.60;;
26600;SDS011;14241;49.260;10.496;2022-09-12T14:08:40;1.73;;;1.60;;
26600;SDS011;14241;49.260;10.496;2022-09-12T14:11:06;2.45;;;1.67;;
26600;SDS011;14241;49.260;10.496;2022-09-12T14:13:32;2.83;;;1.80;;
26600;SDS011;14241;49.260;10.496;2022-09-12T14:15:58;3.65;;;2.00;;
26600;SDS011;14241;49.260;10.496;2022-09-12T14:18:25;2.35;;;2.15;;
26600;SDS011;14241;49.260;10.496;2022-09-12T14:20:51;6.68;;;2.10;;
26600;SDS011;14241;49.260;10.496;2022-09-12T14:23:25;4.07;;;2.00;;
26600;SDS011;14241;49.260;10.496;2022-09-12T14:25:54;2.00;;;1.65;;
26600;SDS011;14241;49.260;10.496;2022-09-12T14:28:20;2.65;;;2.30;;
26600;SDS011;14241;49.260;10.496;2022-09-12T14:33:55;3.75;;;2.28;;
26600;SDS011;14241;49.260;10.496;2022-09-12T14:38:48;2.92;;;2.10;;
26600;SDS011;14241;49.260;10.496;2022-09-12T14:41:19;3.47;;;1.90;;
26600;SDS011;14241;49.260;10.496;2022-09-12T14:43:46;4.03;;;1.80;;
26600;SDS011;14241;49.260;10.496;2022-09-12T14:48:45;2.73;;;1.70;;
26600;SDS011;14241;49.260;10.496;2022-09-12T14:51:24;1.60;;;1.50;;
26600;SDS011;14241;49.260;10.496;2022-09-12T14:53:50;1.60;;;1.50;;
26600;SDS011;14241;49.260;10.496;2022-09-12T14:56:16;2.70;;;1.63;;
26600;SDS011;14241;49.260;10.496;2022-09-12T14:58:41;1.65;;;1.40;;
26600;SDS011;14241;49.260;10.496;2022-09-12T15:05:57;1.33;;;1.23;;
26600;SDS011;14241;49.260;10.496;2022-09-12T15:08:23;1.33;;;1.23;;
26600;SDS011;14241;49.260;10.496;2022-09-12T15:10:49;2.00;;;1.20;;
26600;SDS011;14241;49.260;10.496;2022-09-12T15:15:53;3.53;;;1.57;;
26600;SDS011;14241;49.260;10.496;2022-09-12T15:18:20;2.60;;;1.20;;
26600;SDS011;14241;49.260;10.496;2022-09-12T15:20:46;4.18;;;1.65;;
26600;SDS011;14241;49.260;10.496;2022-09-12T15:23:19;1.30;;;1.05;;
26600;SDS011;14241;49.260;10.496;2022-09-12T15:25:45;1.60;;;1.40;;
26600;SDS011;14241;49.260;10.496;2022-09-12T15:28:17;1.70;;;1.50;;
26600;SDS011;14241;49.260;10.496;2022-09-12T15:30:43;5.18;;;1.70;;
26600;SDS011;14241;49.260;10.496;2022-09-12T15:33:09;1.77;;;1.58;;
26600;SDS011;14241;49.260;10.496;2022-09-12T15:35:35;1.50;;;1.40;;
26600;SDS011;14241;49.260;10.496;2022-09-12T15:38:00;1.52;;;1.33;;
26600;SDS011;14241;49.260;10.496;2022-09-12T15:40:26;3.08;;;1.52;;
26600;SDS011;14241;49.260;10.496;2022-09-12T15:42:51;4.97;;;1.50;;
26600;SDS011;14241;49.260;10.496;2022-09-12T15:45:24;1.40;;;1.30;;
26600;SDS011;14241;49.260;10.496;2022-09-12T15:47:51;1.90;;;1.48;;
26600;SDS011;14241;49.260;10.496;2022-09-12T15:50:17;1.40;;;1.30;;
26600;SDS011;14241;49.260;10.496;2022-09-12T15:52:42;2.90;;;1.60;;
26600;SDS011;14241;49.260;10.496;2022-09-12T15:55:22;2.08;;;1.30;;
26600;SDS011;14241;49.260;10.496;2022-09-12T15:57:47;1.40;;;1.30;;
26600;SDS011;14241;49.260;10.496;2022-09-12T16:00:13;2.38;;;1.40;;
26600;SDS011;14241;49.260;10.496;2022-09-12T16:02:39;3.50;;;1.42;;
26600;SDS011;14241;49.260;10.496;2022-09-12T16:05:04;1.45;;;1.35;;
26600;SDS011;14241;49.260;10.496;2022-09-12T16:07:30;1.58;;;1.15;;
26600;SDS011;14241;49.260;10.496;2022-09-12T16:09:55;1.77;;;1.27;;
26600;SDS011;14241;49.260;10.496;2022-09-12T16:12:20;2.25;;;1.38;;
26600;SDS011;14241;49.260;10.496;2022-09-12T16:14:46;1.67;;;1.40;;
26600;SDS011;14241;49.260;10.496;2022-09-12T16:17:11;1.63;;;1.42;;
26600;SDS011;14241;49.260;10.496;2022-09-12T16:19:49;1.83;;;1.23;;
26600;SDS011;14241;49.260;10.496;2022-09-12T16:22:15;1.55;;;1.45;;
26600;SDS011;14241;49.260;10.496;2022-09-12T16:24:40;1.53;;;1.20;;
26600;SDS011;14241;49.260;10.496;2022-09-12T16:27:05;1.33;;;1.23;;
26600;SDS011;14241;49.260;10.496;2022-09-12T16:29:31;4.53;;;1.27;;
26600;SDS011;14241;49.260;10.496;2022-09-12T16:31:56;1.80;;;1.58;;
26600;SDS011;14241;49.260;10.496;2022-09-12T16:34:21;1.70;;;1.60;;
26600;SDS011;14241;49.260;10.496;2022-09-12T16:36:46;2.13;;;1.63;;
26600;SDS011;14241;49.260;10.496;2022-09-12T16:39:12;4.75;;;1.40;;
26600;SDS011;14241;49.260;10.496;2022-09-12T16:41:37;3.80;;;1.57;;
26600;SDS011;14241;49.260;10.496;2022-09-12T16:44:02;2.45;;;1.48;;
26600;SDS011;14241;49.260;10.496;2022-09-12T16:46:27;10.38;;;1.67;;
26600;SDS011;14241;49.260;10.496;2022-09-12T16:48:53;1.35;;;1.25;;
26600;SDS011;14241;49.260;10.496;2022-09-12T16:51:20;1.30;;;1.20;;
26600;SDS011;14241;49.260;10.496;2022-09-12T16:53:46;2.35;;;1.42;;
26600;SDS011;14241;49.260;10.496;2022-09-12T16:56:12;1.95;;;1.27;;
26600;SDS011;14241;49.260;10.496;2022-09-12T16:58:38;2.25;;;1.27;;
26600;SDS011;14241;49.260;10.496;2022-09-12T17:03:32;4.78;;;1.30;;
26600;SDS011;14241;49.260;10.496;2022-09-12T17:06:02;7.00;;;1.35;;
26600;SDS011;14241;49.260;10.496;2022-09-12T17:08:28;5.05;;;1.00;;
26600;SDS011;14241;49.260;10.496;2022-09-12T17:11:00;3.92;;;1.33;;
26600;SDS011;14241;49.260;10.496;2022-09-12T17:13:25;3.67;;;1.70;;
26600;SDS011;14241;49.260;10.496;2022-09-12T17:15:50;7.07;;;1.80;;
26600;SDS011;14241;49.260;10.496;2022-09-12T17:18:15;6.77;;;1.80;;
26600;SDS011;14241;49.260;10.496;2022-09-12T17:20:41;2.15;;;1.30;;
26600;SDS011;14241;49.260;10.496;2022-09-12T17:23:06;2.35;;;1.60;;
26600;SDS011;14241;49.260;10.496;2022-09-12T17:25:31;1.90;;;1.50;;
26600;SDS011;14241;49.260;10.496;2022-09-12T17:27:56;2.90;;;1.30;;
26600;SDS011;14241;49.260;10.496;2022-09-12T17:30:22;4.63;;;1.30;;
26600;SDS011;14241;49.260;10.496;2022-09-12T17:32:49;2.83;;;1.53;;